Time;durP1;ratioP1;P1;durP2;ratioP2;P2;SDS_P1;SDS_P2;PMS_P1;PMS_P2;Temp;Humidity;BMP_temperature;BMP_pressure;BME280_temperature;BME280_humidity;BME280_pressure;Samples;Min_cycle;Max_cycle;Signal;HPM_P1;HPM_P2
2022/08/07 00:01:11;;;;;;;2.30;1.40;;;23.40;36.40;;;23.78;27.50;99207.38;5046075;27;125321;-72
2022/08/07 00:03:38;;;;;;;1.63;1.20;;;23.40;36.30;;;23.75;27.40;99208.19;5036951;27;115036;-72
2022/08/07 00:06:06;;;;;;;3.30;1.33;;;23.40;36.10;;;23.71;27.49;99201.69;5044673;27;116211;-72
2022/08/07 00:08:32;;;;;;;1.87;1.30;;;23.40;36.10;;;23.68;27.63;99208.06;5043042;27;123577;-72
2022/08/07 00:10:59;;;;;;;1.20;1.00;;;23.30;36.00;;;23.65;27.33;99208.88;5046848;27;124328;-72
2022/08/07 00:13:25;;;;;;;2.37;1.60;;;23.30;36.10;;;23.63;27.59;99205.63;5040064;27;114382;-73
2022/08/07 00:15:53;;;;;;;2.33;1.53;;;23.30;36.20;;;23.59;27.87;99205.59;5040533;27;113928;-73
2022/08/07 00:18:24;;;;;;;1.60;1.40;;;23.20;36.40;;;23.57;27.66;99202.34;5048123;27;124149;-73
2022/08/07 00:20:55;;;;;;;3.30;1.73;;;23.00;36.20;;;23.52;27.35;99208.34;5041984;27;122936;-73
2022/08/07 00:23:22;;;;;;;1.40;1.10;;;23.20;36.10;;;23.51;27.39;99205.94;5043581;27;114287;-73
2022/08/07 00:25:49;;;;;;;1.90;1.37;;;23.10;35.80;;;23.48;27.12;99198.22;5039632;27;113920;-73
2022/08/07 00:28:16;;;;;;;1.80;1.10;;;23.10;35.80;;;23.44;27.59;99197.41;5039499;27;125210;-73
2022/08/07 00:30:43;;;;;;;1.60;1.20;;;23.10;35.80;;;23.40;27.24;99194.56;5039381;27;123247;-73
2022/08/07 00:33:09;;;;;;;1.93;1.00;;;23.00;35.70;;;23.37;27.52;99196.16;5047262;27;113262;-73
2022/08/07 00:35:36;;;;;;;1.40;1.00;;;23.00;35.80;;;23.34;27.38;99202.53;5046101;27;114003;-73
2022/08/07 00:38:03;;;;;;;1.10;1.00;;;23.00;35.80;;;23.30;27.54;99196.06;5037799;27;124811;-73
2022/08/07 00:40:31;;;;;;;2.60;1.03;;;23.00;36.00;;;23.28;27.71;99195.63;5047040;27;123757;-73
2022/08/07 00:42:57;;;;;;;1.73;1.30;;;22.90;36.10;;;23.25;27.59;99201.25;5035738;27;114022;-74
2022/08/07 00:45:24;;;;;;;2.40;1.67;;;22.90;36.20;;;23.21;28.20;99203.22;5045139;27;114036;-74
2022/08/07 00:47:50;;;;;;;3.80;2.00;;;22.80;36.60;;;23.14;28.65;99207.59;5045995;27;124161;-75
2022/08/07 00:50:17;;;;;;;2.97;2.00;;;22.80;37.00;;;23.08;28.77;99206.31;5046907;27;124430;-74
2022/08/07 00:52:44;;;;;;;4.20;2.00;;;22.80;37.40;;;23.03;28.93;99198.22;5036141;27;114575;-74
2022/08/07 00:55:10;;;;;;;2.23;1.60;;;22.70;37.60;;;23.01;29.09;99200.59;5047780;27;115049;-73
2022/08/07 00:57:37;;;;;;;2.50;1.63;;;22.70;37.80;;;23.00;29.17;99200.97;5039635;27;123958;-74
2022/08/07 01:00:07;;;;;;;4.10;1.80;;;22.60;38.00;;;22.98;29.35;99209.03;5047074;27;123949;-74
2022/08/07 01:02:34;;;;;;;1.97;1.50;;;22.60;38.20;;;22.97;29.42;99211.03;5038816;27;114677;-74
2022/08/07 01:05:05;;;;;;;7.17;1.97;;;22.60;38.40;;;22.94;29.69;99200.50;5045194;27;114047;-74
2022/08/07 01:07:32;;;;;;;2.07;1.57;;;22.60;39.30;;;22.93;29.80;99199.69;5030051;27;124011;-74
2022/08/07 01:09:58;;;;;;;5.80;2.40;;;22.50;38.80;;;22.91;30.09;99204.88;5046356;27;124012;-74
2022/08/07 01:12:25;;;;;;;2.20;1.50;;;22.50;39.70;;;22.89;29.84;99198.84;5044904;27;114224;-74
2022/08/07 01:14:52;;;;;;;2.37;1.60;;;22.50;39.10;;;22.85;29.85;99189.53;5045972;27;113694;-74
2022/08/07 01:17:18;;;;;;;1.93;1.50;;;22.50;38.90;;;22.82;29.59;99193.13;5037447;27;123844;-73
2022/08/07 01:19:45;;;;;;;3.13;1.50;;;22.40;38.70;;;22.80;29.77;99195.50;5040771;27;123980;-74
2022/08/07 01:22:12;;;;;;;3.30;1.30;;;22.40;38.80;;;22.78;29.57;99192.25;5042410;27;114425;-74
2022/08/07 01:24:40;;;;;;;3.63;1.60;;;22.40;38.80;;;22.77;29.65;99189.84;5038827;27;113413;-74
2022/08/07 01:27:07;;;;;;;1.90;1.57;;;22.40;38.80;;;22.74;29.70;99188.59;5049721;27;122545;-74
2022/08/07 01:29:33;;;;;;;2.27;1.77;;;22.40;38.90;;;22.71;29.84;99193.00;5038833;27;123658;-74
2022/08/07 01:32:00;;;;;;;1.93;1.70;;;22.40;39.10;;;22.70;30.26;99193.38;5045115;27;114738;-73
2022/08/07 01:34:31;;;;;;;2.07;1.30;;;22.30;39.20;;;22.68;30.05;99190.97;5040068;27;113928;-73
2022/08/07 01:36:59;;;;;;;1.80;1.37;;;22.30;39.20;;;22.66;29.88;99190.53;5040615;27;124132;-73
2022/08/07 01:39:26;;;;;;;3.00;1.50;;;22.30;39.20;;;22.63;29.94;99187.69;5040405;27;123897;-73
2022/08/07 01:41:53;;;;;;;2.00;1.43;;;22.20;39.30;;;22.64;30.27;99189.28;5036359;27;115296;-74
2022/08/07 01:44:20;;;;;;;3.97;1.53;;;22.20;39.40;;;22.61;29.99;99184.44;5037721;27;115912;-74
2022/08/07 01:46:47;;;;;;;3.10;2.20;;;22.20;39.40;;;22.59;30.12;99186.81;5028044;27;124059;-74
2022/08/07 01:49:13;;;;;;;3.30;2.17;;;22.20;39.40;;;22.54;30.10;99189.97;5031209;27;122933;-73
2022/08/07 01:51:44;;;;;;;2.83;1.73;;;22.10;39.50;;;22.49;30.21;99186.31;5035755;27;113525;-73
2022/08/07 01:54:13;;;;;;;3.13;1.40;;;22.10;39.50;;;22.48;30.55;99181.84;5019728;27;113822;-73
2022/08/07 01:56:54;;;;;;;3.07;1.70;;;22.10;39.70;;;22.46;30.39;99183.44;5044061;27;124328;-74
2022/08/07 01:59:27;;;;;;;2.43;1.67;;;22.00;39.70;;;22.39;30.42;99184.16;5031299;27;123837;-74
2022/08/07 02:02:15;;;;;;;2.10;1.70;;;22.00;39.80;;;22.34;30.57;99184.50;5042883;27;114249;-74
2022/08/07 02:04:58;;;;;;;2.67;1.87;;;21.90;39.90;;;22.33;30.65;99185.69;5031442;27;113260;-75
2022/08/07 02:07:42;;;;;;;2.33;1.70;;;21.90;40.20;;;22.33;30.88;99180.06;5028750;27;124164;-74
2022/08/07 02:10:13;;;;;;;2.03;1.60;;;21.90;40.40;;;22.31;31.30;99170.38;5032496;27;123794;-74
2022/08/07 02:12:43;;;;;;;2.00;1.50;;;21.90;40.50;;;22.30;31.13;99174.38;5046988;27;114180;-74
2022/08/07 02:15:10;;;;;;;2.00;1.80;;;21.90;40.70;;;22.30;31.49;99168.75;5023272;27;112843;-74
2022/08/07 02:17:40;;;;;;;3.53;1.97;;;21.90;40.80;;;22.26;31.54;99172.31;5039514;27;124067;-73
2022/08/07 02:20:10;;;;;;;3.83;2.53;;;21.90;40.80;;;22.24;31.39;99165.44;5030811;27;124323;-74
2022/08/07 02:22:39;;;;;;;4.50;2.43;;;21.80;40.90;;;22.21;31.47;99167.03;5048008;27;113933;-75
2022/08/07 02:25:08;;;;;;;2.60;1.90;;;21.80;41.10;;;22.20;31.35;99164.59;5033490;27;114867;-74
2022/08/07 02:27:36;;;;;;;1.63;1.50;;;21.80;41.10;;;22.19;31.62;99168.59;5029421;27;124056;-74
2022/08/07 02:30:05;;;;;;;5.07;1.83;;;21.80;41.20;;;22.17;31.44;99160.53;5038206;27;124325;-74
2022/08/07 02:32:35;;;;;;;1.43;1.30;;;21.80;41.30;;;22.17;31.55;99160.53;5046496;27;114657;-76
2022/08/07 02:35:04;;;;;;;2.00;1.60;;;21.80;41.30;;;22.17;31.51;99162.53;5039909;27;115001;-74
2022/08/07 02:37:34;;;;;;;2.30;1.30;;;21.80;41.30;;;22.15;31.52;99160.09;5039723;27;124689;-76
2022/08/07 02:40:04;;;;;;;1.87;1.43;;;21.70;41.20;;;22.12;31.61;99166.47;5031937;27;123092;-75
2022/08/07 02:42:32;;;;;;;2.40;1.17;;;21.70;41.20;;;22.09;31.37;99158.00;5037953;27;113717;-75
2022/08/07 02:45:02;;;;;;;2.93;1.30;;;21.70;41.10;;;22.02;31.29;99165.13;5049890;27;113386;-74
2022/08/07 02:47:29;;;;;;;2.27;1.57;;;21.60;41.00;;;21.91;31.51;99164.16;5036305;27;124059;-74
2022/08/07 02:49:55;;;;;;;1.60;1.20;;;21.50;41.20;;;21.88;31.54;99170.56;5035646;27;123851;-74
2022/08/07 02:52:59;;;;;;;1.90;1.43;;;21.50;41.30;;;21.82;31.73;99164.44;5034763;27;114355;-75
2022/08/07 02:55:31;;;;;;;2.93;1.50;;;21.40;41.30;;;21.83;31.90;99168.06;5032215;27;114034;-74
2022/08/07 02:58:03;;;;;;;1.40;1.20;;;21.40;41.40;;;21.82;31.70;99167.25;5028580;27;124920;-75
2022/08/07 03:00:34;;;;;;;1.60;1.00;;;21.40;41.50;;;21.82;32.19;99172.09;5030171;27;124386;-74
2022/08/07 03:03:01;;;;;;;1.80;1.20;;;21.40;41.70;;;21.78;31.82;99160.75;5032186;27;114288;-75
2022/08/07 03:05:28;;;;;;;2.27;1.30;;;21.40;41.60;;;21.77;31.78;99161.16;5031167;27;113990;-74
2022/08/07 03:07:55;;;;;;;4.53;1.57;;;21.30;41.60;;;21.75;32.01;99157.91;5045452;27;124551;-75
2022/08/07 03:10:22;;;;;;;1.97;1.40;;;21.30;42.30;;;21.72;32.29;99165.09;5020800;27;122290;-74
2022/08/07 03:12:50;;;;;;;1.20;1.10;;;21.30;41.60;;;21.69;32.12;99171.47;5029962;27;114636;-74
2022/08/07 03:15:17;;;;;;;1.33;1.20;;;21.30;41.70;;;21.64;32.52;99165.38;5040004;27;113410;-76
2022/08/07 03:17:45;;;;;;;2.00;1.30;;;21.20;41.70;;;21.61;32.54;99170.56;5040418;27;123980;-74
2022/08/07 03:20:12;;;;;;;2.30;1.10;;;21.20;42.00;;;21.61;32.53;99162.13;5034718;27;124086;-74
2022/08/07 03:22:41;;;;;;;2.20;1.20;;;21.20;42.20;;;21.60;32.69;99168.94;5033836;27;115220;-75
2022/08/07 03:25:08;;;;;;;3.53;1.20;;;21.20;42.40;;;21.59;32.71;99172.13;5031728;27;115135;-76
2022/08/07 03:27:35;;;;;;;2.60;1.10;;;21.20;42.40;;;21.58;32.63;99168.50;5033738;27;124470;-76
2022/08/07 03:30:03;;;;;;;2.20;1.00;;;21.20;42.40;;;21.57;32.61;99169.69;5022610;27;123244;-75
2022/08/07 03:32:39;;;;;;;2.23;1.30;;;21.20;42.60;;;21.56;32.82;99170.88;5041599;27;114169;-75
2022/08/07 03:35:12;;;;;;;2.60;1.40;;;21.20;42.80;;;21.55;33.11;99174.88;5029412;27;113097;-76
2022/08/07 03:37:40;;;;;;;1.63;1.10;;;21.20;42.80;;;21.52;32.95;99167.22;5032163;27;123716;-76
2022/08/07 03:40:07;;;;;;;1.60;1.13;;;21.10;42.80;;;21.50;32.68;99175.19;5028639;27;123114;-76
2022/08/07 03:42:34;;;;;;;1.60;1.00;;;21.10;42.80;;;21.47;33.26;99170.34;5035387;27;114301;-75
2022/08/07 03:45:03;;;;;;;1.97;0.93;;;21.10;42.80;;;21.43;32.93;99166.63;5043443;27;114133;-76
2022/08/07 03:47:30;;;;;;;1.70;1.30;;;21.00;42.80;;;21.39;33.12;99162.97;5031961;27;124529;-76
2022/08/07 03:49:57;;;;;;;1.30;1.10;;;21.00;42.90;;;21.38;33.43;99166.97;5028661;27;123766;-75
2022/08/07 03:52:28;;;;;;;1.40;1.10;;;20.90;43.00;;;21.34;33.53;99158.44;5028257;27;114161;-76
2022/08/07 03:54:58;;;;;;;1.40;1.10;;;20.90;43.20;;;21.31;33.64;99159.19;5038901;27;114024;-76
2022/08/07 03:57:26;;;;;;;1.60;1.20;;;20.90;43.40;;;21.31;33.49;99161.19;5031330;27;123925;-75
2022/08/07 03:59:54;;;;;;;1.97;1.30;;;20.90;43.50;;;21.30;33.88;99157.56;5034901;27;123206;-77
2022/08/07 04:02:22;;;;;;;2.03;1.40;;;20.80;43.60;;;21.30;33.97;99157.56;5033576;27;114282;-75
2022/08/07 04:04:50;;;;;;;2.93;1.10;;;20.90;43.90;;;21.31;34.12;99153.56;5030022;27;113572;-74
2022/08/07 04:07:17;;;;;;;2.53;1.40;;;20.90;44.10;;;21.31;34.32;99156.38;5036916;27;125251;-74
2022/08/07 04:09:46;;;;;;;2.10;1.10;;;20.90;44.30;;;21.30;34.32;99157.56;5028146;27;124476;-74
2022/08/07 04:12:14;;;;;;;1.20;1.10;;;20.90;44.40;;;21.31;34.00;99159.19;5030682;27;115284;-75
2022/08/07 04:14:41;;;;;;;1.97;1.10;;;20.90;44.50;;;21.30;34.20;99165.19;5028426;27;114728;-73
2022/08/07 04:17:08;;;;;;;2.43;1.20;;;20.90;44.60;;;21.29;34.06;99172.00;5027916;27;124616;-73
2022/08/07 04:19:35;;;;;;;1.40;1.10;;;20.80;44.50;;;21.27;34.52;99169.56;5028357;27;124134;-74
2022/08/07 04:22:03;;;;;;;1.47;1.10;;;20.80;44.70;;;21.28;34.68;99182.44;5034470;27;115487;-74
2022/08/07 04:24:30;;;;;;;1.57;1.30;;;20.80;44.80;;;21.27;34.56;99180.78;5038519;27;114161;-75
2022/08/07 04:26:58;;;;;;;2.13;1.30;;;20.80;44.90;;;21.28;34.85;99182.44;5041985;27;124643;-74
2022/08/07 04:29:24;;;;;;;1.50;1.30;;;20.80;45.00;;;21.30;34.82;99184.84;5028916;27;123830;-74
2022/08/07 04:31:51;;;;;;;3.23;1.53;;;20.80;45.00;;;21.37;34.54;99185.00;5028758;27;114810;-74
2022/08/07 04:34:20;;;;;;;1.87;1.40;;;20.80;45.10;;;21.40;34.32;99189.88;5027318;27;114031;-74
2022/08/07 04:36:47;;;;;;;1.63;1.33;;;20.90;45.20;;;21.45;34.26;99188.78;5026568;27;124540;-74
2022/08/07 04:39:14;;;;;;;2.43;1.67;;;20.90;45.20;;;21.50;34.52;99183.63;5028487;27;122788;-75
2022/08/07 04:41:41;;;;;;;1.83;1.47;;;20.90;45.30;;;21.55;34.31;99191.75;5030239;27;114213;-74
2022/08/07 04:44:08;;;;;;;1.40;1.30;;;20.90;45.30;;;21.55;34.50;99191.75;5030561;27;114096;-74
2022/08/07 04:46:41;;;;;;;1.73;1.53;;;21.00;45.40;;;21.52;34.49;99194.50;5028233;27;124873;-73
2022/08/07 04:49:27;;;;;;;3.73;1.53;;;21.00;45.50;;;21.45;34.65;99191.56;5028588;27;123663;-74
2022/08/07 04:52:35;;;;;;;2.90;1.47;;;20.90;45.40;;;21.42;34.93;99195.16;5027526;27;114141;-74
2022/08/07 04:55:35;;;;;;;2.53;1.37;;;20.90;45.80;;;21.39;35.25;99194.69;5027876;27;113820;-74
2022/08/07 04:58:24;;;;;;;2.73;1.37;;;20.90;46.00;;;21.40;35.18;99195.50;5033146;27;126720;-73
2022/08/07 05:01:13;;;;;;;2.03;1.37;;;20.90;46.10;;;21.40;35.64;99204.75;5033984;27;124224;-74
2022/08/07 05:03:51;;;;;;;2.03;1.23;;;20.90;46.50;;;21.45;35.39;99191.56;5032678;27;115295;-74
2022/08/07 05:06:35;;;;;;;3.13;1.30;;;20.90;46.50;;;21.47;35.42;99200.47;5029273;27;115415;-74
2022/08/07 05:09:19;;;;;;;1.63;1.27;;;21.00;46.70;;;21.51;35.34;99195.69;5041103;27;126914;-74
2022/08/07 05:11:51;;;;;;;3.50;1.60;;;21.00;46.80;;;21.52;35.88;99191.69;5024761;27;122793;-75
2022/08/07 05:14:31;;;;;;;1.60;1.40;;;21.00;46.90;;;21.52;35.97;99203.75;5026927;27;114135;-74
2022/08/07 05:17:01;;;;;;;1.67;1.33;;;21.00;47.10;;;21.54;35.85;99201.38;5027574;27;114074;-76
2022/08/07 05:19:44;;;;;;;1.70;1.43;;;21.00;47.30;;;21.54;36.07;99203.38;5036125;27;124504;-74
2022/08/07 05:22:11;;;;;;;1.57;1.40;;;21.00;47.80;;;21.54;36.43;99201.38;5029167;27;123866;-74
2022/08/07 05:24:39;;;;;;;2.03;1.50;;;21.00;47.90;;;21.58;36.38;99202.25;5038098;27;113847;-74
2022/08/07 05:27:09;;;;;;;4.03;1.60;;;21.00;48.20;;;21.63;36.89;99203.94;5040129;27;113926;-74
2022/08/07 05:29:38;;;;;;;3.50;1.77;;;21.00;48.20;;;21.68;36.72;99217.69;5035270;27;124013;-74
2022/08/07 05:32:07;;;;;;;1.97;1.63;;;22.00;49.30;;;21.71;36.93;99218.91;5042859;27;123680;-74
2022/08/07 05:34:35;;;;;;;1.67;1.57;;;21.10;48.70;;;21.72;37.22;99221.34;5037675;27;115391;-73
2022/08/07 05:37:03;;;;;;;2.53;1.73;;;21.10;49.00;;;21.74;37.07;99221.78;5013543;27;114136;-74
2022/08/07 05:39:30;;;;;;;2.10;1.70;;;21.20;49.20;;;21.77;37.42;99220.22;5043214;27;123963;-74
2022/08/07 05:41:57;;;;;;;1.70;1.60;;;21.20;49.30;;;21.78;37.61;99219.03;5041949;27;123563;-74
2022/08/07 05:44:24;;;;;;;5.13;1.70;;;21.20;49.50;;;21.79;37.65;99215.03;5049882;27;114931;-76
2022/08/07 05:46:51;;;;;;;4.70;2.50;;;21.20;49.80;;;21.79;37.88;99217.84;5039834;27;113856;-74
2022/08/07 05:49:20;;;;;;;2.43;2.00;;;21.20;50.00;;;21.79;37.97;99217.84;5034365;27;124107;-74
2022/08/07 05:51:46;;;;;;;2.40;2.20;;;21.20;51.10;;;21.78;38.25;99227.47;5041224;27;124244;-73
2022/08/07 05:54:15;;;;;;;2.40;2.07;;;21.20;50.40;;;21.75;38.28;99216.97;5043721;27;114534;-74
2022/08/07 05:56:43;;;;;;;2.73;2.00;;;21.20;50.70;;;21.75;38.24;99233.84;5037969;27;114734;-74
2022/08/07 05:59:20;;;;;;;2.10;1.90;;;21.20;50.80;;;21.73;38.16;99224.97;5047039;27;123564;-74
2022/08/07 06:01:49;;;;;;;2.80;2.20;;;21.20;51.00;;;21.75;38.62;99236.66;5023812;27;122686;-74
2022/08/07 06:04:19;;;;;;;2.60;2.20;;;21.20;51.20;;;21.78;38.94;99227.47;5042566;27;113822;-74
2022/08/07 06:06:46;;;;;;;2.17;1.90;;;21.20;51.20;;;21.82;38.78;99228.34;5040907;27;113943;-74
2022/08/07 06:09:15;;;;;;;2.60;1.80;;;21.20;51.30;;;21.84;38.70;99229.59;5045857;27;124112;-75
2022/08/07 06:11:42;;;;;;;2.40;1.93;;;21.20;51.40;;;21.91;38.81;99228.06;5040119;27;124970;-74
2022/08/07 06:14:09;;;;;;;2.30;1.73;;;21.30;51.60;;;21.97;38.67;99232.97;5046850;27;114577;-74
2022/08/07 06:16:38;;;;;;;4.30;2.13;;;21.30;51.70;;;22.02;38.97;99229.84;5031171;27;114191;-75
2022/08/07 06:19:05;;;;;;;3.20;2.37;;;21.40;52.00;;;22.05;39.32;99228.28;5044388;27;124693;-75
2022/08/07 06:21:32;;;;;;;2.30;1.63;;;21.40;52.00;;;22.12;39.18;99233.22;5038982;27;123905;-74
2022/08/07 06:23:58;;;;;;;4.23;1.70;;;21.40;52.00;;;22.22;38.82;99235.41;5046150;27;114174;-75
2022/08/07 06:26:25;;;;;;;2.53;2.00;;;21.50;52.10;;;22.31;39.12;99230.31;5042752;27;114060;-74
2022/08/07 06:28:55;;;;;;;2.80;2.00;;;21.60;52.20;;;22.39;39.08;99229.22;5045017;27;124115;-75
2022/08/07 06:31:22;;;;;;;2.20;2.00;;;21.70;53.00;;;22.47;38.92;99225.28;5048925;27;123389;-74
2022/08/07 06:33:49;;;;;;;2.33;2.10;;;21.80;52.50;;;22.53;39.11;99225.75;5044921;27;114197;-73
2022/08/07 06:36:15;;;;;;;3.87;2.40;;;21.80;52.60;;;22.58;39.15;99225.44;5032220;27;114365;-75
2022/08/07 06:38:43;;;;;;;3.50;2.10;;;21.90;52.90;;;22.62;39.07;99220.66;5044438;27;124052;-72
2022/08/07 06:41:17;;;;;;;2.70;2.23;;;21.90;53.10;;;22.69;39.43;99217.13;5038828;27;123946;-73
2022/08/07 06:43:46;;;;;;;2.47;1.80;;;22.00;53.40;;;22.72;39.33;99214.34;5046070;27;115170;-72
2022/08/07 06:46:14;;;;;;;3.13;2.33;;;22.00;53.50;;;22.75;39.72;99215.56;5026848;27;114246;-73
2022/08/07 06:48:41;;;;;;;3.70;2.17;;;22.00;53.60;;;22.80;39.66;99211.59;5046108;27;123934;-73
2022/08/07 06:51:13;;;;;;;3.40;2.43;;;22.00;53.70;;;22.84;39.50;99216.09;5047979;27;123839;-73
2022/08/07 06:53:40;;;;;;;2.77;2.00;;;22.10;54.00;;;22.89;39.76;99215.75;5046540;27;114265;-74
2022/08/07 06:56:10;;;;;;;4.87;2.07;;;22.10;53.80;;;22.99;39.65;99217.09;5047263;27;114734;-74
2022/08/07 06:58:39;;;;;;;3.40;1.90;;;22.20;53.90;;;23.06;39.76;99222.81;5041444;27;123784;-75
2022/08/07 07:01:08;;;;;;;2.90;2.50;;;22.30;54.60;;;22.98;39.88;99223.94;5046008;27;123924;-74
2022/08/07 07:03:38;;;;;;;3.50;2.47;;;22.30;54.80;;;22.96;39.94;99222.66;5045213;27;114052;-73
2022/08/07 07:06:07;;;;;;;4.80;2.60;;;22.20;54.70;;;23.04;40.25;99218.75;5048953;27;114075;-74
2022/08/07 07:08:35;;;;;;;2.60;2.20;;;22.30;54.90;;;23.13;40.17;99216.41;5061312;27;123893;-75
2022/08/07 07:11:04;;;;;;;3.70;2.40;;;22.30;54.90;;;23.22;39.96;99208.47;5047546;27;96668;-74
2022/08/07 07:13:42;;;;;;;3.23;2.50;;;22.40;55.00;;;23.30;39.97;99210.16;5048293;27;114187;-73
2022/08/07 07:16:18;;;;;;;2.20;1.87;;;22.50;55.10;;;23.41;39.76;99217.94;5047183;27;113067;-73
2022/08/07 07:19:02;;;;;;;2.80;2.30;;;22.60;55.10;;;23.48;40.01;99218.81;5030720;27;123831;-73
2022/08/07 07:21:37;;;;;;;2.67;2.40;;;22.80;55.30;;;23.61;39.93;99213.66;5040391;27;123838;-73
2022/08/07 07:24:04;;;;;;;9.07;2.80;;;22.80;55.20;;;23.73;39.82;99216.22;5044381;27;114064;-73
2022/08/07 07:26:33;;;;;;;5.63;2.50;;;22.90;55.40;;;23.83;39.71;99219.50;5033307;27;112704;-73
2022/08/07 07:29:08;;;;;;;2.87;2.10;;;23.00;55.20;;;23.90;39.35;99211.91;5046587;27;124530;-73
2022/08/07 07:31:41;;;;;;;4.37;2.20;;;23.10;55.00;;;23.93;39.48;99213.13;5043092;27;123181;-74
2022/08/07 07:34:13;;;;;;;3.47;1.87;;;23.10;55.00;;;23.96;39.24;99212.34;5041307;27;115039;-74
2022/08/07 07:36:42;;;;;;;7.30;2.77;;;23.20;55.00;;;24.00;39.29;99201.91;5048555;27;114894;-74
2022/08/07 07:39:10;;;;;;;2.87;2.40;;;23.20;55.00;;;24.07;39.12;99204.75;5029690;27;124281;-74
2022/08/07 07:41:40;;;;;;;3.20;2.40;;;23.30;54.90;;;24.14;38.94;99207.63;5039128;27;122695;-74
2022/08/07 07:44:10;;;;;;;2.20;1.93;;;23.40;54.70;;;24.17;38.92;99189.88;5032206;27;113506;-74
2022/08/07 07:46:40;;;;;;;2.00;1.80;;;23.40;54.60;;;24.23;38.75;99193.13;5028196;27;112969;-74
2022/08/07 07:49:10;;;;;;;4.50;2.67;;;23.50;54.50;;;24.32;38.71;99189.97;5029134;27;124266;-73
2022/08/07 07:51:38;;;;;;;3.53;1.87;;;23.50;54.30;;;24.37;38.17;99184.75;5033470;27;123934;-73
2022/08/07 07:54:06;;;;;;;2.73;1.90;;;23.60;53.90;;;24.40;37.56;99188.81;5032193;27;114291;-73
2022/08/07 07:56:34;;;;;;;2.20;1.80;;;23.60;53.10;;;24.40;36.84;99183.16;5034980;27;113895;-73
2022/08/07 07:59:03;;;;;;;2.83;2.00;;;23.60;52.00;;;24.40;36.99;99183.97;5037948;27;124294;-74
2022/08/07 08:01:33;;;;;;;2.77;1.60;;;23.60;52.20;;;24.47;36.83;99174.72;5039571;27;123557;-74
2022/08/07 08:04:04;;;;;;;3.27;1.70;;;23.70;52.20;;;24.51;36.88;99175.56;5031864;27;113772;-75
2022/08/07 08:06:32;;;;;;;2.20;1.70;;;23.70;52.00;;;24.52;36.77;99176.38;5039546;27;113733;-74
2022/08/07 08:09:02;;;;;;;2.40;1.87;;;23.70;51.80;;;24.57;36.76;99173.16;5028382;27;124516;-74
2022/08/07 08:11:30;;;;;;;1.97;1.77;;;23.80;51.70;;;24.66;36.20;99165.94;5030993;27;123794;-74
2022/08/07 08:13:56;;;;;;;3.40;2.10;;;23.90;51.40;;;24.74;35.91;99174.44;5029189;27;113446;-74
2022/08/07 08:16:38;;;;;;;2.50;1.70;;;24.00;51.60;;;24.80;35.59;99170.03;5034690;27;114265;-74
2022/08/07 08:19:08;;;;;;;1.80;1.50;;;24.00;50.60;;;24.87;34.89;99168.00;5027647;27;124116;-74
2022/08/07 08:27:15;;;;;;;2.50;1.47;;;24.20;49.20;;;25.01;34.32;99170.06;5039938;27;115695;-75
2022/08/07 08:29:49;;;;;;;2.13;1.40;;;24.30;48.90;;;25.03;33.11;99167.63;5034827;27;123991;-74
2022/08/07 08:32:20;;;;;;;3.80;1.57;;;24.30;47.50;;;25.03;33.41;99164.81;5042520;27;123708;-73
2022/08/07 08:34:49;;;;;;;2.10;1.43;;;24.30;47.70;;;25.08;33.52;99166.44;5044955;27;114011;-74
2022/08/07 08:37:17;;;;;;;3.60;1.37;;;24.40;47.40;;;25.12;32.91;99158.78;5043301;27;113891;-73
2022/08/07 08:39:45;;;;;;;2.03;1.30;;;24.40;46.80;;;25.17;32.18;99166.06;5026225;27;124105;-73
2022/08/07 08:42:33;;;;;;;1.43;1.30;;;24.50;46.10;;;25.19;31.95;99163.66;5028652;27;124399;-73
2022/08/07 08:45:17;;;;;;;2.07;1.57;;;24.50;45.60;;;25.23;31.66;99153.97;5035999;27;114249;-72
2022/08/07 08:47:55;;;;;;;1.40;1.30;;;24.50;45.50;;;25.30;31.68;99164.47;5027245;27;114049;-72
2022/08/07 08:50:34;;;;;;;1.83;1.30;;;24.60;45.30;;;25.33;31.41;99161.66;5027297;27;124697;-72
2022/08/07 08:53:28;;;;;;;2.60;1.30;;;24.70;45.10;;;25.35;31.09;99155.59;5043457;27;122686;-71
2022/08/07 08:56:14;;;;;;;1.50;1.10;;;24.70;44.50;;;25.38;30.90;99153.97;5030933;27;113981;-73
2022/08/07 08:59:06;;;;;;;3.37;1.50;;;24.70;43.70;;;25.37;31.27;99153.16;5043962;27;113965;-73
2022/08/07 09:01:42;;;;;;;2.63;1.33;;;24.70;44.20;;;25.42;30.48;99154.78;5041668;27;124022;-72
2022/08/07 09:04:53;;;;;;;1.70;1.20;;;24.80;43.60;;;25.43;30.26;99160.03;5034419;27;124173;-72
2022/08/07 09:07:58;;;;;;;1.70;1.03;;;24.80;42.70;;;25.43;29.73;99137.41;5029601;27;113249;-72
2022/08/07 09:10:33;;;;;;;1.50;1.33;;;24.80;42.20;;;25.46;29.26;99153.56;5059849;27;113668;-72
2022/08/07 09:13:11;;;;;;;1.20;0.90;;;24.80;41.40;;;25.47;29.12;99146.72;5041908;27;123938;-72
2022/08/07 09:15:53;;;;;;;1.63;1.07;;;24.90;41.40;;;25.48;29.11;99137.00;5046269;27;123745;-72
2022/08/07 09:18:56;;;;;;;2.13;1.40;;;24.90;41.00;;;25.50;29.27;99143.06;5028654;27;114540;-72
2022/08/07 09:22:07;;;;;;;1.90;1.27;;;24.90;41.30;;;25.55;29.49;99142.66;5040956;27;115010;-72
2022/08/07 09:25:24;;;;;;;2.40;1.57;;;25.00;41.50;;;25.64;29.33;99147.09;5040523;27;124115;-72
2022/08/07 09:28:05;;;;;;;2.47;1.30;;;25.00;41.40;;;25.67;28.89;99154.78;5030355;27;123723;-72
2022/08/07 09:31:09;;;;;;;1.30;1.20;;;25.10;41.10;;;25.70;28.86;99151.13;5039975;27;113856;-72
2022/08/07 09:34:05;;;;;;;1.83;1.10;;;25.10;40.60;;;25.72;28.47;99146.69;5047192;27;113919;-72
2022/08/07 09:36:46;;;;;;;1.23;1.13;;;25.20;40.40;;;25.75;28.06;99140.19;5045746;27;123159;-72
2022/08/07 09:39:26;;;;;;;1.77;1.10;;;25.20;40.10;;;25.81;28.49;99143.41;5039343;27;123026;-72
2022/08/07 09:42:19;;;;;;;1.63;1.00;;;25.20;40.00;;;25.87;27.93;99147.50;5025878;27;114299;-72
2022/08/07 09:45:23;;;;;;;3.40;1.30;;;25.30;39.70;;;25.93;27.57;99139.41;5031525;27;114552;-73
2022/08/07 09:48:19;;;;;;;1.50;1.13;;;25.30;39.30;;;25.95;27.55;99126.44;5029755;27;124683;-72
2022/08/07 09:51:10;;;;;;;1.60;1.10;;;25.30;39.30;;;25.98;27.75;99131.28;5026991;27;123866;-72
2022/08/07 09:53:42;;;;;;;4.47;1.37;;;25.50;39.20;;;26.03;27.12;99130.03;5029311;27;114049;-72
2022/08/07 09:56:48;;;;;;;2.00;1.20;;;25.50;38.50;;;26.06;26.83;99132.09;5018629;28;113098;-72
2022/08/07 09:59:37;;;;;;;1.10;1.00;;;25.50;38.10;;;26.09;26.89;99124.78;5034861;27;124081;-73
2022/08/07 10:02:41;;;;;;;3.03;1.20;;;25.50;37.90;;;26.12;26.65;99129.63;5031614;27;121986;-73
2022/08/07 10:05:55;;;;;;;1.43;1.00;;;25.60;38.10;;;26.15;26.40;99123.16;5028584;27;114193;-73
2022/08/07 10:08:45;;;;;;;4.67;0.90;;;25.60;37.50;;;26.20;26.12;99115.03;5026304;27;113988;-73
2022/08/07 10:12:07;;;;;;;4.57;1.57;;;25.60;37.20;;;26.22;26.27;99108.94;5030477;27;123987;-72
2022/08/07 10:15:10;;;;;;;1.60;1.23;;;25.70;36.40;;;26.23;25.91;99119.88;5031831;27;123644;-73
2022/08/07 10:18:33;;;;;;;1.30;1.10;;;25.70;36.00;;;26.23;25.60;99107.75;5030597;27;115652;-72
2022/08/07 10:21:31;;;;;;;1.53;1.00;;;25.70;36.10;;;26.26;25.42;99101.25;4990350;28;113964;-73
2022/08/07 10:24:44;;;;;;;3.70;1.00;;;25.70;35.70;;;26.20;25.31;99100.06;5007960;28;123333;-73
2022/08/07 10:27:35;;;;;;;1.00;0.83;;;25.70;35.40;;;26.25;25.32;99093.16;5007206;28;124233;-72
2022/08/07 10:30:09;;;;;;;1.20;1.10;;;25.70;35.80;;;26.29;24.96;99088.28;5007595;28;114412;-73
2022/08/07 10:33:17;;;;;;;2.13;1.00;;;25.80;35.00;;;26.27;24.53;99088.69;4994008;28;114398;-73
2022/08/07 10:36:04;;;;;;;1.63;1.20;;;25.70;34.20;;;26.32;24.96;99093.13;5006976;28;123317;-72
2022/08/07 10:39:09;;;;;;;1.20;1.10;;;25.80;35.00;;;26.35;24.88;99076.09;4989844;28;123789;-72
2022/08/07 10:41:50;;;;;;;1.00;0.90;;;25.80;34.90;;;26.41;24.73;99076.47;5011649;28;114241;-72
2022/08/07 10:44:45;;;;;;;1.93;1.20;;;25.90;34.80;;;26.45;24.37;99068.78;4989611;28;112434;-73
2022/08/07 10:47:32;;;;;;;1.93;0.97;;;26.00;34.40;;;26.46;24.27;99064.72;4970105;28;124138;-72